createdAt,value
2022-10-02T00:00:00.098Z,13.13
2022-10-02T00:02:34.096Z,10.63
2022-10-02T00:05:10.550Z,9.83
2022-10-02T00:07:42.261Z,12.03
2022-10-02T00:10:15.429Z,13.97
2022-10-02T00:12:46.733Z,20.97
2022-10-02T00:15:18.357Z,15.50
2022-10-02T00:17:49.867Z,14.77
2022-10-02T00:20:23.739Z,12.80
2022-10-02T00:22:57.070Z,13.33
2022-10-02T00:25:28.358Z,14.30
2022-10-02T00:28:08.190Z,14.53
2022-10-02T00:30:46.494Z,12.80
2022-10-02T00:33:25.035Z,14.50
2022-10-02T00:36:07.642Z,16.10
2022-10-02T00:38:52.310Z,15.23
2022-10-02T00:41:37.749Z,15.23
2022-10-02T00:44:23.854Z,14.63
2022-10-02T00:47:01.038Z,12.00
2022-10-02T00:49:47.096Z,15.57
2022-10-02T00:52:38.444Z,12.90
2022-10-02T00:55:35.708Z,10.93
2022-10-02T00:58:19.277Z,13.63
2022-10-02T01:00:56.022Z,8.90
2022-10-02T01:03:27.732Z,10.97
2022-10-02T01:05:55.864Z,11.93
2022-10-02T01:08:25.508Z,16.73
2022-10-02T01:10:53.761Z,12.27
2022-10-02T01:13:21.946Z,11.20
2022-10-02T01:15:52.970Z,23.20
2022-10-02T01:18:21.369Z,14.40
2022-10-02T01:20:52.569Z,22.27
2022-10-02T01:23:31.910Z,14.47
2022-10-02T01:26:01.736Z,15.17
2022-10-02T01:28:30.587Z,15.87
2022-10-02T01:31:07.563Z,12.47
2022-10-02T01:33:36.318Z,15.10
2022-10-02T01:36:04.539Z,16.03
2022-10-02T01:38:32.833Z,13.57
2022-10-02T01:41:02.276Z,15.80
2022-10-02T01:43:33.273Z,15.20
2022-10-02T01:46:21.990Z,15.57
2022-10-02T01:48:58.705Z,14.47
2022-10-02T01:51:46.113Z,14.10
2022-10-02T01:54:21.959Z,19.77
2022-10-02T01:57:00.194Z,22.10
2022-10-02T01:59:39.152Z,16.67
2022-10-02T02:02:15.680Z,14.07
2022-10-02T02:04:52.858Z,16.27
2022-10-02T02:07:28.804Z,13.73
2022-10-02T02:10:03.967Z,12.33
2022-10-02T02:12:42.049Z,14.57
2022-10-02T02:15:16.820Z,20.87
2022-10-02T02:17:51.949Z,12.87
2022-10-02T02:20:23.826Z,16.83
2022-10-02T02:22:54.130Z,14.97
2022-10-02T02:25:26.428Z,17.33
2022-10-02T02:27:58.874Z,9.83
2022-10-02T02:30:27.795Z,19.63
2022-10-02T02:33:00.209Z,18.60
2022-10-02T02:35:32.668Z,15.87
2022-10-02T02:38:05.525Z,12.03
2022-10-02T02:40:38.800Z,18.10
2022-10-02T02:43:15.665Z,13.93
2022-10-02T02:45:49.784Z,10.50
2022-10-02T02:48:21.661Z,16.30
2022-10-02T02:50:55.037Z,14.80
2022-10-02T02:53:25.881Z,17.13
2022-10-02T02:55:57.035Z,15.43
2022-10-02T02:58:30.515Z,14.87
2022-10-02T03:00:59.039Z,14.23
2022-10-02T03:03:27.273Z,19.83
2022-10-02T03:06:03.847Z,14.33
2022-10-02T03:08:36.475Z,11.53
2022-10-02T03:11:13.155Z,14.87
2022-10-02T03:13:55.113Z,15.87
2022-10-02T03:16:45.595Z,9.73
2022-10-02T03:19:25.771Z,8.17
2022-10-02T03:22:03.050Z,13.53
2022-10-02T03:24:36.978Z,13.03
2022-10-02T03:27:10.463Z,11.07
2022-10-02T03:29:46.500Z,10.27
2022-10-02T03:32:17.716Z,12.50
2022-10-02T03:34:46.100Z,10.20
2022-10-02T03:37:14.243Z,8.40
2022-10-02T03:39:44.515Z,11.60
2022-10-02T03:42:14.425Z,11.90
2022-10-02T03:44:44.944Z,11.70
2022-10-02T03:47:12.979Z,9.60
2022-10-02T03:49:41.055Z,12.07
2022-10-02T03:52:14.654Z,8.17
2022-10-02T03:54:42.838Z,8.67
2022-10-02T03:57:16.111Z,9.80
2022-10-02T03:59:44.307Z,12.23
2022-10-02T04:02:24.298Z,8.70
2022-10-02T04:04:57.468Z,14.80
2022-10-02T04:07:28.983Z,9.67
2022-10-02T04:10:08.721Z,10.57
2022-10-02T04:12:41.853Z,16.67
2022-10-02T04:15:20.125Z,10.07
2022-10-02T04:17:58.748Z,13.10
2022-10-02T04:20:33.216Z,11.10
2022-10-02T04:23:07.823Z,11.63
2022-10-02T04:25:40.924Z,9.97
2022-10-02T04:28:15.179Z,13.70
2022-10-02T04:30:43.315Z,9.67
2022-10-02T04:33:15.030Z,14.63
2022-10-02T04:35:54.099Z,7.90
2022-10-02T04:38:48.512Z,12.73
2022-10-02T04:41:56.383Z,11.17
2022-10-02T04:44:38.130Z,9.03
2022-10-02T04:47:32.479Z,11.50
2022-10-02T04:50:34.980Z,12.27
2022-10-02T04:53:17.514Z,14.03
2022-10-02T04:56:06.896Z,6.60
2022-10-02T04:58:50.385Z,12.40
2022-10-02T05:01:30.162Z,14.57
2022-10-02T05:04:14.674Z,14.50
2022-10-02T05:07:02.248Z,8.30
2022-10-02T05:09:34.295Z,12.83
2022-10-02T05:12:24.298Z,11.40
2022-10-02T05:15:24.680Z,13.07
2022-10-02T05:18:19.218Z,11.97
2022-10-02T05:21:02.071Z,16.20
2022-10-02T05:23:46.469Z,15.20
2022-10-02T05:26:39.884Z,11.17
2022-10-02T05:29:26.641Z,13.63
2022-10-02T05:32:16.886Z,18.27
2022-10-02T05:34:59.722Z,13.03
2022-10-02T05:37:42.889Z,11.23
2022-10-02T05:40:22.994Z,17.13
2022-10-02T05:42:59.531Z,10.60
2022-10-02T05:45:32.083Z,15.53
2022-10-02T05:48:07.504Z,17.10
2022-10-02T05:50:37.907Z,15.87
2022-10-02T05:53:14.553Z,14.13
2022-10-02T05:55:50.212Z,10.80
2022-10-02T05:58:23.402Z,12.93
2022-10-02T06:00:56.947Z,10.20
2022-10-02T06:03:32.740Z,18.23
2022-10-02T06:06:07.364Z,18.50
2022-10-02T06:08:41.230Z,13.63
2022-10-02T06:11:17.331Z,13.60
2022-10-02T06:13:50.792Z,12.40
2022-10-02T06:16:23.356Z,17.47
2022-10-02T06:18:56.915Z,9.90
2022-10-02T06:21:32.502Z,13.20
2022-10-02T06:24:05.608Z,110.87
2022-10-02T06:26:42.548Z,111.50
2022-10-02T06:29:20.604Z,247.13
2022-10-02T06:31:58.889Z,145.80
2022-10-02T06:34:27.851Z,343.73
2022-10-02T06:37:20.542Z,134.90
2022-10-02T06:40:14.095Z,123.47
2022-10-02T06:42:53.678Z,181.10
2022-10-02T06:45:32.654Z,277.67
2022-10-02T06:48:07.084Z,112.73
2022-10-02T06:50:50.657Z,116.30
2022-10-02T06:53:37.303Z,45.93
2022-10-02T06:56:23.399Z,103.23
2022-10-02T06:59:06.558Z,55.03
2022-10-02T07:01:49.679Z,227.73
2022-10-02T07:04:47.589Z,353.83
2022-10-02T07:07:28.502Z,216.70
2022-10-02T07:10:14.975Z,223.63
2022-10-02T07:13:07.777Z,40.73
2022-10-02T07:16:09.064Z,315.30
2022-10-02T07:18:50.843Z,219.03
2022-10-02T07:21:28.336Z,206.63
2022-10-02T07:24:05.535Z,518.90
2022-10-02T07:26:49.978Z,111.43
2022-10-02T07:29:37.098Z,352.30
2022-10-02T07:32:38.135Z,344.63
2022-10-02T07:35:30.913Z,349.67
2022-10-02T07:38:20.075Z,349.87
2022-10-02T07:40:59.890Z,477.63
2022-10-02T07:43:42.385Z,406.00
2022-10-02T07:46:18.082Z,182.60
2022-10-02T07:49:00.213Z,314.93
2022-10-02T07:51:49.790Z,117.73
2022-10-02T07:54:49.058Z,342.13
2022-10-02T07:57:30.337Z,197.50
2022-10-02T08:00:05.492Z,93.40
2022-10-02T08:02:40.669Z,373.87
2022-10-02T08:05:21.843Z,148.97
2022-10-02T08:07:53.290Z,20.17
2022-10-02T08:10:26.812Z,309.10
2022-10-02T08:13:06.004Z,178.13
2022-10-02T08:15:38.640Z,8.23
2022-10-02T08:18:35.874Z,6.90
2022-10-02T08:21:11.544Z,5.80
2022-10-02T08:23:44.688Z,7.83
2022-10-02T08:26:19.226Z,10.57
2022-10-02T08:29:08.606Z,11.30
2022-10-02T08:31:40.180Z,6.50
2022-10-02T08:34:17.657Z,21.97
2022-10-02T08:37:08.406Z,8.23
2022-10-02T08:40:12.527Z,101.10
2022-10-02T08:43:08.769Z,37.83
2022-10-02T08:46:14.357Z,182.33
2022-10-02T08:49:27.494Z,355.90
2022-10-02T08:52:29.916Z,292.17
2022-10-02T08:55:34.289Z,54.33
2022-10-02T08:58:44.071Z,85.17
2022-10-02T09:01:31.469Z,145.40
2022-10-02T09:04:32.237Z,2.77
2022-10-02T09:07:43.787Z,5.97
2022-10-02T09:10:51.565Z,7.07
2022-10-02T09:13:46.829Z,4.83
2022-10-02T09:16:26.484Z,11.30
2022-10-02T09:19:03.005Z,2.83
2022-10-02T09:21:52.944Z,4.57
2022-10-02T09:24:59.334Z,1.53
2022-10-02T09:27:57.764Z,8.63
2022-10-02T09:30:47.993Z,4.43
2022-10-02T09:33:49.690Z,1.40
2022-10-02T09:37:06.815Z,2.03
2022-10-02T09:40:25.772Z,10.23
2022-10-02T09:43:41.430Z,2.53
2022-10-02T09:46:36.243Z,4.73
2022-10-02T09:49:51.931Z,2.20
2022-10-02T09:53:01.647Z,4.57
2022-10-02T09:55:58.004Z,4.30
2022-10-02T09:58:59.145Z,1.73
2022-10-02T10:02:02.099Z,3.77
2022-10-02T10:05:06.567Z,4.80
2022-10-02T10:08:05.810Z,3.27
2022-10-02T10:10:49.469Z,2.03
2022-10-02T10:13:47.236Z,7.77
2022-10-02T10:16:38.943Z,118.33
2022-10-02T10:19:39.560Z,8.83
2022-10-02T10:22:32.352Z,1.93
2022-10-02T10:25:42.964Z,44.03
2022-10-02T10:28:45.258Z,7.27
2022-10-02T10:31:45.820Z,4.43
2022-10-02T10:34:46.098Z,2.97
2022-10-02T10:37:54.666Z,2.00
2022-10-02T10:40:38.479Z,47.73
2022-10-02T10:43:47.749Z,2.13
2022-10-02T10:46:38.356Z,3.17
2022-10-02T10:49:23.474Z,2.10
2022-10-02T10:52:07.462Z,3.03
2022-10-02T10:54:57.202Z,5.87
2022-10-02T10:58:01.270Z,153.90
2022-10-02T11:00:34.666Z,20.83
2022-10-02T11:03:42.550Z,8.73
2022-10-02T11:06:53.222Z,125.17
2022-10-02T11:09:44.000Z,3.37
2022-10-02T11:12:29.189Z,8.23
2022-10-02T11:15:18.624Z,10.37
2022-10-02T11:18:10.275Z,4.27
2022-10-02T11:21:21.432Z,1.90
2022-10-02T11:24:13.607Z,6.63
2022-10-02T11:27:03.368Z,153.00
2022-10-02T11:29:54.219Z,2.90
2022-10-02T11:32:59.721Z,6.70
2022-10-02T11:35:53.474Z,2.00
2022-10-02T11:38:56.054Z,2.10
2022-10-02T11:41:45.160Z,3.43
2022-10-02T11:44:22.234Z,1.40
2022-10-02T11:47:15.949Z,3.40
2022-10-02T11:50:02.094Z,3.03
2022-10-02T11:52:57.976Z,1.87
2022-10-02T11:55:41.085Z,3.20
2022-10-02T11:58:18.496Z,1.40
2022-10-02T12:01:14.945Z,14.07
2022-10-02T12:03:56.570Z,10.37
2022-10-02T12:06:42.162Z,2.97
2022-10-02T12:09:18.420Z,9.60
2022-10-02T12:11:55.738Z,11.47
2022-10-02T12:14:33.282Z,4.33
2022-10-02T12:17:11.972Z,1.67
2022-10-02T12:20:16.803Z,3.40
2022-10-02T12:23:09.984Z,1.13
2022-10-02T12:26:04.686Z,1.93
2022-10-02T12:28:44.207Z,1.50
2022-10-02T12:31:21.045Z,1.07
2022-10-02T12:34:01.310Z,4.33
2022-10-02T12:36:42.805Z,2.10
2022-10-02T12:39:25.637Z,1.60
2022-10-02T12:42:06.354Z,2.57
2022-10-02T12:44:47.691Z,4.33
2022-10-02T12:47:40.983Z,1.07
2022-10-02T12:50:23.346Z,1.67
2022-10-02T12:53:19.192Z,1.97
2022-10-02T12:56:22.986Z,3.20
2022-10-02T12:59:02.631Z,97.30
2022-10-02T13:02:06.185Z,5.90
2022-10-02T13:05:07.656Z,39.00
2022-10-02T13:08:14.170Z,52.60
2022-10-02T13:10:45.651Z,1.93
2022-10-02T13:13:43.399Z,24.53
2022-10-02T13:16:21.196Z,5.13
2022-10-02T13:19:21.136Z,19.13
2022-10-02T13:21:59.010Z,1.00
2022-10-02T13:24:43.115Z,1.70
2022-10-02T13:27:26.334Z,2.13
2022-10-02T13:30:11.802Z,9.17
2022-10-02T13:33:06.040Z,5.23
2022-10-02T13:35:53.404Z,2.23
2022-10-02T13:38:39.253Z,3.10
2022-10-02T13:41:20.797Z,5.40
2022-10-02T13:44:04.997Z,4.57
2022-10-02T13:46:53.543Z,2.73
2022-10-02T13:49:38.053Z,3.60
2022-10-02T13:52:14.599Z,5.23
2022-10-02T13:54:57.732Z,3.40
2022-10-02T13:57:44.368Z,2.17
2022-10-02T14:00:24.752Z,3.23
2022-10-02T14:03:05.998Z,3.30
2022-10-02T14:05:43.316Z,3.83
2022-10-02T14:08:40.989Z,2.93
2022-10-02T14:11:22.521Z,3.00
2022-10-02T14:14:03.740Z,3.70
2022-10-02T14:16:49.310Z,3.87
2022-10-02T14:19:35.317Z,6.90
2022-10-02T14:22:21.441Z,3.27
2022-10-02T14:25:05.044Z,9.33
2022-10-02T14:27:58.460Z,3.57
2022-10-02T14:30:38.889Z,6.27
2022-10-02T14:33:16.740Z,8.07
2022-10-02T14:35:53.269Z,1.70
2022-10-02T14:38:45.490Z,3.60
2022-10-02T14:41:48.589Z,3.10
2022-10-02T14:44:46.831Z,1.67
2022-10-02T14:47:36.172Z,5.10
2022-10-02T14:50:24.104Z,3.43
2022-10-02T14:53:21.764Z,5.97
2022-10-02T14:56:24.173Z,4.50
2022-10-02T14:59:09.877Z,6.40
2022-10-02T15:01:44.502Z,2.83
2022-10-02T15:04:29.428Z,6.70
2022-10-02T15:07:08.310Z,3.27
2022-10-02T15:09:50.562Z,5.77
2022-10-02T15:12:22.637Z,4.83
2022-10-02T15:15:05.763Z,4.93
2022-10-02T15:17:55.718Z,6.93
2022-10-02T15:20:44.443Z,8.00
2022-10-02T15:23:14.629Z,3.87
2022-10-02T15:25:59.468Z,6.83
2022-10-02T15:28:39.757Z,6.10
2022-10-02T15:31:20.416Z,6.60
2022-10-02T15:34:01.488Z,6.60
2022-10-02T15:36:58.500Z,5.67
2022-10-02T15:39:53.324Z,6.13
2022-10-02T15:42:41.911Z,5.77
2022-10-02T15:45:33.510Z,4.60
2022-10-02T15:48:33.811Z,3.67
2022-10-02T15:51:11.700Z,4.87
2022-10-02T15:54:03.990Z,3.57
2022-10-02T15:56:47.258Z,3.60
2022-10-02T15:59:31.468Z,4.87
2022-10-02T16:02:15.895Z,5.63
2022-10-02T16:04:59.911Z,8.57
2022-10-02T16:07:47.946Z,6.73
2022-10-02T16:10:24.441Z,8.17
2022-10-02T16:13:27.083Z,3.77
2022-10-02T16:15:56.842Z,6.17
2022-10-02T16:18:48.077Z,4.80
2022-10-02T16:21:51.821Z,6.67
2022-10-02T16:24:54.297Z,7.13
2022-10-02T16:27:46.296Z,5.73
2022-10-02T16:30:16.103Z,7.13
2022-10-02T16:33:02.778Z,6.83
2022-10-02T16:35:53.856Z,9.03
2022-10-02T16:38:28.344Z,6.67
2022-10-02T16:41:00.579Z,4.13
2022-10-02T16:43:51.226Z,8.20
2022-10-02T16:46:25.435Z,6.30
2022-10-02T16:49:00.623Z,6.07
2022-10-02T16:51:40.248Z,6.10
2022-10-02T16:54:20.724Z,9.77
2022-10-02T16:56:55.202Z,7.70
2022-10-02T16:59:27.387Z,8.17
2022-10-02T17:02:19.054Z,7.27
2022-10-02T17:04:58.978Z,5.50
2022-10-02T17:07:51.221Z,6.63
2022-10-02T17:10:26.149Z,9.07
2022-10-02T17:13:02.040Z,91.00
2022-10-02T17:15:37.829Z,12.47
2022-10-02T17:18:17.920Z,6.00
2022-10-02T17:20:50.955Z,7.63
2022-10-02T17:23:26.004Z,15.90
2022-10-02T17:26:02.318Z,17.73
2022-10-02T17:28:37.268Z,12.53
2022-10-02T17:31:35.773Z,10.10
2022-10-02T17:34:20.004Z,7.17
2022-10-02T17:36:55.241Z,6.90
2022-10-02T17:39:36.036Z,5.83
2022-10-02T17:42:15.239Z,5.93
2022-10-02T17:44:56.928Z,7.20
2022-10-02T17:47:47.250Z,10.53
2022-10-02T17:50:37.501Z,6.00
2022-10-02T17:53:40.934Z,7.87
2022-10-02T17:56:41.775Z,7.77
2022-10-02T17:59:34.366Z,8.90
2022-10-02T18:02:14.484Z,7.13
2022-10-02T18:04:59.245Z,8.87
2022-10-02T18:07:41.162Z,10.27
2022-10-02T18:10:18.311Z,22.17
2022-10-02T18:13:07.691Z,9.30
2022-10-02T18:15:51.766Z,5.20
2022-10-02T18:18:29.164Z,9.27
2022-10-02T18:21:09.344Z,7.03
2022-10-02T18:24:05.491Z,10.23
2022-10-02T18:26:46.003Z,7.63
2022-10-02T18:29:25.865Z,4.77
2022-10-02T18:32:11.486Z,9.90
2022-10-02T18:35:09.303Z,7.43
2022-10-02T18:38:01.756Z,12.03
2022-10-02T18:40:31.938Z,8.83
2022-10-02T18:43:21.177Z,9.07
2022-10-02T18:45:56.057Z,7.13
2022-10-02T18:48:59.703Z,7.67
2022-10-02T18:51:59.747Z,8.77
2022-10-02T18:54:31.493Z,7.03
2022-10-02T18:57:15.943Z,6.30
2022-10-02T18:59:57.458Z,7.30
2022-10-02T19:02:41.362Z,9.27
2022-10-02T19:05:28.070Z,6.90
2022-10-02T19:08:10.956Z,11.07
2022-10-02T19:10:42.908Z,13.73
2022-10-02T19:13:22.198Z,10.50
2022-10-02T19:15:52.486Z,9.60
2022-10-02T19:18:22.594Z,7.57
2022-10-02T19:20:59.442Z,7.83
2022-10-02T19:23:35.722Z,9.07
2022-10-02T19:26:08.168Z,11.37
2022-10-02T19:28:45.517Z,11.80
2022-10-02T19:31:14.208Z,9.80
2022-10-02T19:33:49.782Z,8.07
2022-10-02T19:36:22.661Z,14.23
2022-10-02T19:38:55.179Z,7.30
2022-10-02T19:41:23.917Z,7.73
2022-10-02T19:43:56.776Z,11.60
2022-10-02T19:46:39.250Z,12.13
2022-10-02T19:49:08.806Z,6.70
2022-10-02T19:51:44.957Z,7.43
2022-10-02T19:54:20.079Z,9.17
2022-10-02T19:56:48.642Z,12.30
2022-10-02T19:59:20.332Z,13.97
2022-10-02T20:01:53.352Z,14.20
2022-10-02T20:04:23.768Z,10.10
2022-10-02T20:06:54.692Z,10.83
2022-10-02T20:09:30.718Z,11.90
2022-10-02T20:12:05.716Z,10.47
2022-10-02T20:14:40.809Z,10.13
2022-10-02T20:17:10.677Z,16.97
2022-10-02T20:19:45.243Z,17.23
2022-10-02T20:22:19.120Z,12.80
2022-10-02T20:24:55.405Z,12.43
2022-10-02T20:27:34.869Z,10.20
2022-10-02T20:30:08.206Z,11.67
2022-10-02T20:32:39.743Z,9.00
2022-10-02T20:35:15.330Z,13.03
2022-10-02T20:37:44.300Z,9.10
2022-10-02T20:40:19.449Z,12.50
2022-10-02T20:42:54.440Z,8.53
2022-10-02T20:45:26.288Z,9.07
2022-10-02T20:48:39.545Z,10.17
2022-10-02T20:51:26.919Z,13.80
2022-10-02T20:54:28.729Z,10.63
2022-10-02T20:57:59.797Z,7.83
2022-10-02T21:00:28.895Z,9.47
2022-10-02T21:03:32.421Z,10.17
2022-10-02T21:06:46.327Z,11.47
2022-10-02T21:09:52.989Z,21.90
2022-10-02T21:12:58.007Z,11.10
2022-10-02T21:15:53.780Z,9.60
2022-10-02T21:18:48.106Z,13.80
2022-10-02T21:21:50.441Z,13.63
2022-10-02T21:24:45.521Z,14.50
2022-10-02T21:27:45.934Z,10.27
2022-10-02T21:30:17.391Z,12.70
2022-10-02T21:33:02.919Z,22.73
2022-10-02T21:35:44.110Z,21.73
2022-10-02T21:38:35.617Z,20.77
2022-10-02T21:41:55.036Z,11.03
2022-10-02T21:45:04.316Z,11.13
2022-10-02T21:48:08.334Z,14.70
2022-10-02T21:51:12.029Z,13.87
2022-10-02T21:54:13.754Z,18.57
2022-10-02T21:57:32.262Z,13.20
2022-10-02T22:00:19.651Z,15.10
2022-10-02T22:03:21.152Z,19.27
2022-10-02T22:06:10.331Z,13.73
2022-10-02T22:08:51.868Z,14.87
2022-10-02T22:11:29.759Z,16.50
2022-10-02T22:14:06.541Z,19.93
2022-10-02T22:16:46.547Z,16.87
2022-10-02T22:19:32.166Z,15.33
2022-10-02T22:22:17.313Z,22.87
2022-10-02T22:25:08.761Z,18.33
2022-10-02T22:27:55.675Z,18.03
2022-10-02T22:30:27.100Z,22.40
2022-10-02T22:33:13.460Z,21.90
2022-10-02T22:36:04.225Z,24.83
2022-10-02T22:38:37.732Z,23.93
2022-10-02T22:41:12.833Z,26.67
2022-10-02T22:43:48.432Z,23.17
2022-10-02T22:46:29.902Z,27.77
2022-10-02T22:49:02.805Z,23.73
2022-10-02T22:51:39.060Z,24.93
2022-10-02T22:54:21.113Z,23.13
2022-10-02T22:56:59.148Z,21.13
2022-10-02T22:59:32.778Z,27.93
2022-10-02T23:02:08.243Z,29.77
2022-10-02T23:04:44.915Z,24.83
2022-10-02T23:07:17.588Z,24.80
2022-10-02T23:09:52.052Z,17.43
2022-10-02T23:12:28.065Z,22.40
2022-10-02T23:15:29.437Z,24.70
2022-10-02T23:18:01.686Z,18.70
2022-10-02T23:20:37.186Z,19.20
2022-10-02T23:23:15.025Z,19.03
2022-10-02T23:25:51.755Z,20.70
2022-10-02T23:28:26.807Z,19.17
2022-10-02T23:31:06.465Z,17.63
2022-10-02T23:33:45.804Z,18.87
2022-10-02T23:36:24.186Z,19.00
2022-10-02T23:39:00.407Z,21.40
2022-10-02T23:41:46.923Z,15.33
2022-10-02T23:44:32.183Z,19.77
2022-10-02T23:47:25.542Z,25.10
2022-10-02T23:49:55.768Z,24.27
2022-10-02T23:52:41.874Z,20.30
2022-10-02T23:55:25.260Z,21.97
2022-10-02T23:58:21.102Z,25.97
